Time;durP1;ratioP1;P1;durP2;ratioP2;P2;SDS_P1;SDS_P2;PMS_P1;PMS_P2;Temp;Humidity;BMP_temperature;BMP_pressure;BME280_temperature;BME280_humidity;BME280_pressure;Samples;Min_cycle;Max_cycle;Signal;HPM_P1;HPM_P2
2022/08/29 05:12:15;;;;;;;;;2.75;1.00;;;;;21.12;42.91;101573.66;2805548;23;46410;-85
2022/08/29 05:13:26;;;;;;;;;2.25;1.25;;;;;21.12;42.45;101576.34;2403609;28;47994;-87
2022/08/29 05:14:36;;;;;;;;;1.25;1.25;;;;;21.10;42.73;101580.94;2409015;28;45558;-86
2022/08/29 05:15:48;;;;;;;;;2.00;1.00;;;;;21.10;42.85;101578.25;2410049;28;45812;-86
2022/08/29 05:16:58;;;;;;;;;2.00;1.00;;;;;21.08;42.66;101586.38;2411216;28;45332;-87
2022/08/29 05:18:08;;;;;;;;;2.00;2.00;;;;;21.08;42.84;101578.38;2409751;28;45500;-86
2022/08/29 05:19:19;;;;;;;;;2.00;2.00;;;;;21.09;42.87;101576.53;2411519;28;45305;-86
2022/08/29 05:20:30;;;;;;;;;1.00;1.00;;;;;21.09;42.72;101580.06;2420169;28;47160;-86
2022/08/29 05:21:40;;;;;;;;;2.00;1.25;;;;;21.12;42.90;101577.19;2411594;28;45443;-87
2022/08/29 05:22:51;;;;;;;;;3.75;1.50;;;;;21.13;43.09;101578.06;2407924;28;45249;-86
2022/08/29 05:24:07;;;;;;;;;2.75;1.50;;;;;21.15;43.25;101576.16;2409409;28;45330;-86
2022/08/29 05:25:18;;;;;;;;;1.00;1.00;;;;;21.17;42.83;101576.91;2410671;28;45513;-86
2022/08/29 05:26:34;;;;;;;;;0.50;0.50;;;;;21.20;42.84;101587.41;2415932;28;45464;-86
2022/08/29 05:27:45;;;;;;;;;4.00;2.50;;;;;21.22;43.24;101588.16;2412392;28;46260;-87
2022/08/29 05:28:55;;;;;;;;;2.75;2.75;;;;;21.21;43.06;101582.91;2405521;28;44632;-86
2022/08/29 05:30:06;;;;;;;;;2.00;2.00;;;;;21.22;42.75;101587.28;2415842;28;47035;-86
2022/08/29 05:31:17;;;;;;;;;2.00;2.00;;;;;21.21;42.85;101590.94;2409730;28;44711;-85
2022/08/29 05:32:28;;;;;;;;;3.50;2.00;;;;;21.21;42.72;101596.28;2412339;28;45514;-87
2022/08/29 05:33:38;;;;;;;;;3.00;1.25;;;;;21.20;42.73;101592.75;2419695;28;45332;-86
2022/08/29 05:34:49;;;;;;;;;3.50;2.00;;;;;21.18;43.02;101596.47;2421382;28;45386;-87
2022/08/29 05:35:59;;;;;;;;;2.75;2.75;;;;;21.17;43.01;101600.09;2410296;28;45377;-86
2022/08/29 05:37:13;;;;;;;;;2.25;1.00;;;;;21.18;43.58;101601.81;2411325;28;47438;-86
2022/08/29 05:38:24;;;;;;;;;1.50;1.50;;;;;21.18;43.09;101608.03;2404965;28;45210;-89
2022/08/29 05:39:36;;;;;;;;;3.50;2.00;;;;;21.18;43.10;101599.16;2421001;28;46257;-90
2022/08/29 05:40:47;;;;;;;;;1.50;1.00;;;;;21.18;42.90;101609.84;2410156;28;45485;-86
2022/08/29 05:41:58;;;;;;;;;1.25;1.25;;;;;21.20;43.25;101610.59;2395404;28;47183;-86
2022/08/29 05:43:10;;;;;;;;;2.00;1.00;;;;;21.19;43.63;101606.19;2409282;28;46964;-86
2022/08/29 05:44:20;;;;;;;;;0.50;0.50;;;;;21.18;42.79;101610.69;2410877;28;46939;-86
2022/08/29 05:45:31;;;;;;;;;3.25;2.00;;;;;21.19;43.16;101607.06;2410779;28;45487;-86
2022/08/29 05:46:42;;;;;;;;;2.25;2.25;;;;;21.19;42.88;101612.41;2411425;28;45522;-87
2022/08/29 05:47:52;;;;;;;;;1.00;1.00;;;;;21.21;43.02;101618.50;2411095;28;45164;-85
2022/08/29 05:49:04;;;;;;;;;3.00;1.25;;;;;21.20;42.75;101611.44;2410417;28;47685;-87
2022/08/29 05:50:15;;;;;;;;;2.00;2.00;;;;;21.20;42.99;101615.94;2395810;28;45172;-86
2022/08/29 05:51:26;;;;;;;;;3.00;1.75;;;;;21.20;42.96;101616.81;2404869;28;47002;-86
2022/08/29 05:52:36;;;;;;;;;2.00;1.50;;;;;21.20;43.22;101605.25;2404894;28;45250;-83
2022/08/29 05:53:47;;;;;;;;;2.00;2.00;;;;;21.20;42.94;101606.09;2403931;28;48004;-85
2022/08/29 05:54:58;;;;;;;;;2.25;1.50;;;;;21.18;43.12;101605.34;2411224;28;45277;-85
2022/08/29 05:56:08;;;;;;;;;3.50;2.00;;;;;21.19;43.17;101608.84;2405669;28;47220;-85
2022/08/29 05:57:21;;;;;;;;;1.00;1.00;;;;;21.18;42.66;101607.16;2407858;28;44715;-85
2022/08/29 05:58:32;;;;;;;;;2.50;2.50;;;;;21.14;43.03;101610.03;2408007;28;45529;-85
2022/08/29 05:59:42;;;;;;;;;3.25;2.25;;;;;21.13;43.05;101610.13;2408656;28;45277;-84
2022/08/29 06:00:52;;;;;;;;;1.25;1.00;;;;;21.11;43.45;101606.72;2407057;28;46371;-85
2022/08/29 06:02:05;;;;;;;;;2.00;2.00;;;;;21.09;42.86;101609.47;2408402;28;44704;-85
2022/08/29 06:03:15;;;;;;;;;1.50;1.50;;;;;21.08;42.94;101607.75;2407080;28;46789;-84
2022/08/29 06:04:26;;;;;;;;;4.75;2.50;;;;;21.08;43.34;101613.09;2410838;28;44683;-85
2022/08/29 06:05:37;;;;;;;;;2.00;2.00;;;;;21.08;43.09;101612.25;2406714;28;46705;-85
2022/08/29 06:06:49;;;;;;;;;3.00;2.00;;;;;21.09;43.56;101614.81;2419019;28;45455;-85
2022/08/29 06:08:00;;;;;;;;;1.75;1.75;;;;;21.12;43.50;101617.28;2406960;28;47137;-85
2022/08/29 06:09:12;;;;;;;;;3.00;2.00;;;;;21.12;43.28;101617.28;2403853;28;44743;-84
2022/08/29 06:10:22;;;;;;;;;2.00;2.00;;;;;21.14;43.41;101612.69;2410420;28;45782;-85
2022/08/29 06:11:33;;;;;;;;;3.75;2.00;;;;;21.17;43.43;101621.47;2410300;28;44716;-84
2022/08/29 06:12:43;;;;;;;;;1.50;1.50;;;;;21.16;43.39;101625.97;2410369;28;46937;-85
2022/08/29 06:13:55;;;;;;;;;2.00;1.25;;;;;21.16;43.07;101615.28;2410662;28;45514;-87
2022/08/29 06:15:06;;;;;;;;;2.50;2.50;;;;;21.16;43.03;101625.13;2409834;28;45530;-86
2022/08/29 06:16:19;;;;;;;;;2.00;2.00;;;;;21.15;43.49;101613.56;2406362;28;45435;-86
2022/08/29 06:17:30;;;;;;;;;2.00;1.00;;;;;21.12;43.66;101614.63;2410323;28;46566;-85
2022/08/29 06:18:41;;;;;;;;;2.00;2.00;;;;;21.16;43.51;101625.13;2402114;28;45439;-84
2022/08/29 06:19:51;;;;;;;;;2.00;2.00;;;;;21.14;43.54;101615.38;2405666;28;45699;-84
2022/08/29 06:21:05;;;;;;;;;2.75;2.25;;;;;21.15;43.29;101624.25;2407910;28;45435;-85
2022/08/29 06:22:18;;;;;;;;;2.00;2.00;;;;;21.16;43.77;101619.78;2404661;28;47599;-84
2022/08/29 06:23:28;;;;;;;;;3.75;1.00;;;;;21.16;43.65;101625.13;2411862;28;45269;-84
2022/08/29 06:24:39;;;;;;;;;3.25;1.50;;;;;21.20;43.62;101626.63;2404182;28;45518;-85
2022/08/29 06:25:56;;;;;;;;;5.00;3.00;;;;;21.20;43.29;101627.50;2404475;28;45500;-85
2022/08/29 06:27:07;;;;;;;;;2.00;2.00;;;;;21.23;43.29;101637.13;2399882;28;47592;-85
2022/08/29 06:28:17;;;;;;;;;1.50;1.50;;;;;21.24;43.66;101638.81;2400370;28;45407;-85
2022/08/29 06:29:27;;;;;;;;;3.00;3.00;;;;;21.27;43.53;101645.78;2404466;28;47577;-85
2022/08/29 06:30:38;;;;;;;;;4.00;2.50;;;;;21.25;43.30;101644.09;2411527;28;45300;-84
2022/08/29 06:31:48;;;;;;;;;2.50;1.25;;;;;21.25;43.06;101636.06;2411662;28;45476;-85
2022/08/29 06:32:59;;;;;;;;;3.00;2.00;;;;;21.23;42.98;101637.13;2409838;28;45337;-85
2022/08/29 06:34:10;;;;;;;;;4.00;3.00;;;;;21.22;43.18;101635.41;2401151;28;48460;-85
2022/08/29 06:35:20;;;;;;;;;2.00;2.00;;;;;21.22;43.71;101630.06;2407158;28;45338;-85
2022/08/29 06:36:31;;;;;;;;;1.25;1.25;;;;;21.23;43.23;101631.78;2411604;28;47468;-85
2022/08/29 06:37:41;;;;;;;;;2.00;2.00;;;;;21.22;43.59;101636.25;2402960;28;45394;-85
2022/08/29 06:38:57;;;;;;;;;2.00;2.00;;;;;21.24;43.19;101641.50;2411627;28;45307;-85
2022/08/29 06:40:08;;;;;;;;;5.25;3.00;;;;;21.22;43.17;101640.75;2405315;28;45271;-85
2022/08/29 06:41:18;;;;;;;;;2.25;2.25;;;;;21.22;43.36;101638.94;2401980;28;46248;-84
2022/08/29 06:42:28;;;;;;;;;4.00;3.00;;;;;21.24;43.21;101638.81;2402398;28;44632;-84
2022/08/29 06:43:40;;;;;;;;;2.25;1.00;;;;;21.25;43.63;101635.22;2402626;28;45388;-84
2022/08/29 06:44:51;;;;;;;;;4.25;2.00;;;;;21.26;44.04;101634.22;2411010;28;45279;-84
2022/08/29 06:46:02;;;;;;;;;0.00;0.00;;;;;21.27;43.58;101643.97;2401867;28;47260;-84
2022/08/29 06:47:12;;;;;;;;;1.75;1.75;;;;;21.27;43.25;101641.31;2404047;28;45239;-85
2022/08/29 06:48:23;;;;;;;;;1.50;1.25;;;;;21.28;43.67;101645.72;2403896;28;47448;-85
2022/08/29 06:49:33;;;;;;;;;1.75;1.75;;;;;21.29;43.31;101636.72;2404240;28;44637;-84
2022/08/29 06:50:43;;;;;;;;;2.00;2.00;;;;;21.29;43.17;101638.53;2411324;28;46408;-84
2022/08/29 06:51:54;;;;;;;;;2.00;2.00;;;;;21.28;42.88;101634.16;2411135;28;45345;-85
2022/08/29 06:53:06;;;;;;;;;3.00;2.00;;;;;21.26;43.15;101628.88;2410734;28;48008;-84
2022/08/29 06:54:22;;;;;;;;;3.75;2.00;;;;;21.26;43.61;101636.91;2403228;28;45245;-84
2022/08/29 06:55:36;;;;;;;;;2.50;1.50;;;;;21.30;43.32;101637.59;2404696;28;47544;-84
2022/08/29 06:56:48;;;;;;;;;3.00;3.00;;;;;21.30;43.32;101637.59;2410481;28;45330;-84
2022/08/29 06:57:58;;;;;;;;;3.25;3.00;;;;;21.31;43.82;101628.63;2411050;28;47818;-84
2022/08/29 06:59:09;;;;;;;;;3.75;1.75;;;;;21.33;43.53;101632.91;2407053;28;45183;-85
2022/08/29 07:00:20;;;;;;;;;4.50;2.00;;;;;21.34;43.54;101631.94;2403425;28;45691;-84
2022/08/29 07:01:30;;;;;;;;;1.50;1.50;;;;;21.37;43.00;101638.91;2403629;28;44693;-85
2022/08/29 07:02:41;;;;;;;;;2.00;2.00;;;;;21.37;43.96;101630.88;2411468;28;46215;-84
2022/08/29 07:03:53;;;;;;;;;3.25;2.00;;;;;21.43;43.76;101637.66;2413463;28;44644;-84
2022/08/29 07:05:04;;;;;;;;;2.00;2.00;;;;;21.45;43.77;101639.28;2413600;28;45362;-84
2022/08/29 07:06:16;;;;;;;;;3.25;2.25;;;;;21.49;43.24;101642.59;2412602;28;45395;-84
2022/08/29 07:07:26;;;;;;;;;4.75;2.50;;;;;21.52;43.02;101644.19;2409581;28;47508;-84
2022/08/29 07:08:38;;;;;;;;;2.25;1.75;;;;;21.53;43.64;101643.25;2407127;28;45502;-84
2022/08/29 07:09:48;;;;;;;;;2.25;2.25;;;;;21.55;43.07;101644.00;2406231;28;45584;-84
2022/08/29 07:10:59;;;;;;;;;3.00;3.00;;;;;21.57;43.64;101644.75;2413258;28;44681;-84
2022/08/29 07:12:09;;;;;;;;;4.50;2.00;;;;;21.60;43.57;101649.91;2404330;28;47288;-84
2022/08/29 07:13:20;;;;;;;;;2.00;0.75;;;;;21.63;43.83;101651.53;2407030;28;45338;-84
2022/08/29 07:14:30;;;;;;;;;4.50;3.00;;;;;21.64;42.99;101639.84;2411429;28;47470;-85
2022/08/29 07:15:41;;;;;;;;;3.00;2.00;;;;;21.67;43.24;101639.66;2403705;28;45462;-83
2022/08/29 07:16:51;;;;;;;;;4.00;2.00;;;;;21.68;43.33;101641.38;2403323;28;47473;-84
2022/08/29 07:18:01;;;;;;;;;3.00;3.00;;;;;21.69;42.92;101638.59;2396331;28;44752;-85
2022/08/29 07:19:12;;;;;;;;;2.75;1.25;;;;;21.70;43.08;101642.13;2404986;28;48016;-85
2022/08/29 07:20:22;;;;;;;;;2.25;2.00;;;;;21.68;43.17;101636.88;2404796;28;45394;-84
2022/08/29 07:21:33;;;;;;;;;4.75;3.00;;;;;21.70;43.01;101637.63;2407967;28;46272;-84
2022/08/29 07:22:49;;;;;;;;;3.50;2.25;;;;;21.68;43.03;101638.72;2404366;28;44645;-84
2022/08/29 07:24:00;;;;;;;;;2.25;2.25;;;;;21.65;43.13;101642.44;2413020;28;46389;-83
2022/08/29 07:25:11;;;;;;;;;2.00;2.00;;;;;21.64;43.35;101640.72;2412819;28;45418;-83
2022/08/29 07:26:28;;;;;;;;;2.00;2.00;;;;;21.65;43.10;101641.59;2403924;28;48284;-84
2022/08/29 07:27:38;;;;;;;;;2.00;2.00;;;;;21.67;43.01;101645.00;2405184;28;45311;-84
2022/08/29 07:28:51;;;;;;;;;2.25;2.00;;;;;21.68;43.34;101638.72;2406465;28;46120;-84
2022/08/29 07:30:04;;;;;;;;;3.00;3.00;;;;;21.69;43.24;101632.38;2412451;28;45397;-85
2022/08/29 07:31:14;;;;;;;;;4.00;3.00;;;;;21.69;42.98;101637.72;2413080;28;47282;-84
2022/08/29 07:32:25;;;;;;;;;3.00;3.00;;;;;21.69;43.52;101640.41;2412336;28;45237;-84
2022/08/29 07:33:35;;;;;;;;;3.00;1.25;;;;;21.68;43.29;101642.22;2412566;28;46423;-84
2022/08/29 07:34:45;;;;;;;;;3.00;2.00;;;;;21.66;43.05;101638.78;2413207;28;45457;-83
2022/08/29 07:35:56;;;;;;;;;3.00;1.75;;;;;21.66;42.81;101641.47;2412918;28;46305;-83
2022/08/29 07:37:09;;;;;;;;;3.00;2.00;;;;;21.66;43.05;101633.44;2406015;28;44703;-84
2022/08/29 07:38:20;;;;;;;;;2.75;1.75;;;;;21.67;43.12;101635.19;2413243;28;45375;-84
2022/08/29 07:39:31;;;;;;;;;6.00;4.00;;;;;21.69;43.46;101640.41;2421736;28;45426;-84
2022/08/29 07:40:41;;;;;;;;;3.75;2.00;;;;;21.68;43.41;101642.22;2404892;28;48198;-84
2022/08/29 07:41:52;;;;;;;;;6.00;2.00;;;;;21.68;43.13;101636.88;2404882;28;45270;-84
2022/08/29 07:43:03;;;;;;;;;1.50;1.50;;;;;21.69;42.79;101645.75;2404890;28;47383;-85
2022/08/29 07:44:16;;;;;;;;;2.00;2.00;;;;;21.69;42.99;101645.75;2404749;28;44823;-84
2022/08/29 07:45:26;;;;;;;;;2.25;2.00;;;;;21.68;43.41;101641.38;2407252;28;48243;-84
2022/08/29 07:46:36;;;;;;;;;4.00;2.25;;;;;21.69;43.29;101643.09;2401901;28;45372;-85
2022/08/29 07:47:47;;;;;;;;;2.75;2.75;;;;;21.71;42.99;101643.84;2405603;28;47218;-83
2022/08/29 07:48:58;;;;;;;;;3.25;1.50;;;;;21.70;43.06;101642.97;2411783;28;45438;-84
2022/08/29 07:50:10;;;;;;;;;3.50;2.00;;;;;21.70;43.02;101642.13;2412328;28;45430;-84
2022/08/29 07:51:22;;;;;;;;;2.25;2.25;;;;;21.70;43.02;101644.81;2404078;28;44762;-84
2022/08/29 07:52:33;;;;;;;;;3.50;3.00;;;;;21.69;43.47;101648.44;2399875;28;47293;-83
2022/08/29 07:53:45;;;;;;;;;2.25;2.25;;;;;21.68;43.12;101646.75;2399294;28;45289;-83
2022/08/29 07:54:55;;;;;;;;;2.00;2.00;;;;;21.67;43.27;101645.00;2405911;28;47277;-84
2022/08/29 07:56:08;;;;;;;;;3.75;2.00;;;;;21.67;43.32;101639.66;2404064;28;44784;-84
2022/08/29 07:57:18;;;;;;;;;2.00;2.00;;;;;21.67;43.57;101648.56;2403497;28;45383;-84
2022/08/29 07:58:30;;;;;;;;;3.25;3.25;;;;;21.68;43.46;101647.56;2411972;28;45373;-84
2022/08/29 07:59:40;;;;;;;;;6.00;2.75;;;;;21.68;43.33;101647.56;2412491;28;47684;-84
2022/08/29 08:00:50;;;;;;;;;1.50;1.50;;;;;21.69;43.00;101649.31;2412603;28;45565;-84
2022/08/29 08:02:02;;;;;;;;;3.25;2.25;;;;;21.69;43.33;101643.94;2413290;28;45397;-84
2022/08/29 08:03:14;;;;;;;;;1.75;1.75;;;;;21.70;43.37;101650.16;2412646;28;45185;-84
2022/08/29 08:04:25;;;;;;;;;2.75;2.00;;;;;21.68;43.18;101644.91;2412392;28;46081;-84
2022/08/29 08:05:37;;;;;;;;;5.25;2.25;;;;;21.69;43.15;101643.09;2415954;28;45240;-84
2022/08/29 08:06:47;;;;;;;;;3.75;2.00;;;;;21.69;43.20;101643.94;2415200;28;45430;-84
2022/08/29 08:07:57;;;;;;;;;2.75;1.50;;;;;21.72;43.74;101634.88;2408994;28;45318;-85
2022/08/29 08:09:09;;;;;;;;;3.25;2.25;;;;;21.74;43.43;101638.28;2402946;28;46569;-85
2022/08/29 08:10:19;;;;;;;;;3.00;3.00;;;;;21.78;43.11;101637.13;2413588;28;45427;-84
2022/08/29 08:11:30;;;;;;;;;3.00;2.50;;;;;21.82;43.21;101629.75;2415609;28;45467;-84
2022/08/29 08:12:40;;;;;;;;;3.50;3.50;;;;;21.85;42.81;101631.38;2419438;28;45303;-84
2022/08/29 08:13:54;;;;;;;;;3.25;3.00;;;;;21.89;43.48;101632.91;2410790;28;48191;-84
2022/08/29 08:15:05;;;;;;;;;4.75;2.00;;;;;21.92;43.07;101633.56;2412793;28;45241;-85
2022/08/29 08:16:19;;;;;;;;;3.50;3.50;;;;;21.94;43.29;101628.09;2409728;28;45291;-83
2022/08/29 08:17:29;;;;;;;;;2.00;2.00;;;;;21.97;43.11;101635.06;2405429;28;45479;-84
2022/08/29 08:18:41;;;;;;;;;4.50;3.00;;;;;21.99;43.06;101631.31;2412583;28;46478;-85
2022/08/29 08:19:51;;;;;;;;;3.75;2.50;;;;;21.97;43.06;101625.22;2403821;28;45257;-83
2022/08/29 08:21:02;;;;;;;;;2.75;2.75;;;;;22.00;43.40;101625.00;2400635;28;47402;-84
2022/08/29 08:22:13;;;;;;;;;2.00;2.00;;;;;22.02;43.25;101628.44;2409661;28;45475;-84
2022/08/29 08:23:23;;;;;;;;;5.75;3.00;;;;;22.07;43.46;101621.91;2402933;28;48393;-84
2022/08/29 08:24:33;;;;;;;;;5.00;2.25;;;;;22.11;42.94;101628.75;2406383;28;45258;-84
2022/08/29 08:25:44;;;;;;;;;1.50;1.50;;;;;22.14;43.33;101628.56;2413110;28;46451;-84
2022/08/29 08:26:54;;;;;;;;;3.00;2.00;;;;;22.18;43.70;101623.84;2405355;28;45426;-83
2022/08/29 08:28:05;;;;;;;;;3.00;3.00;;;;;22.21;43.18;101627.16;2403250;28;45368;-84
2022/08/29 08:29:16;;;;;;;;;2.00;2.00;;;;;22.24;42.90;101626.09;2405152;28;45384;-84
2022/08/29 08:30:26;;;;;;;;;3.00;2.00;;;;;22.24;42.91;101626.09;2412160;28;47088;-83
2022/08/29 08:31:41;;;;;;;;;4.00;3.00;;;;;22.26;42.79;101618.81;2410057;28;45154;-84
2022/08/29 08:32:52;;;;;;;;;2.50;2.50;;;;;22.25;42.75;101623.31;2402848;28;47546;-84
2022/08/29 08:34:02;;;;;;;;;2.50;2.00;;;;;22.28;42.72;101622.25;2402021;28;44733;-84
2022/08/29 08:35:15;;;;;;;;;6.25;3.00;;;;;22.31;43.00;101623.84;2412418;28;45202;-83
2022/08/29 08:36:29;;;;;;;;;5.00;3.00;;;;;22.33;43.15;101620.09;2411675;28;45769;-84
2022/08/29 08:37:39;;;;;;;;;3.00;3.00;;;;;22.37;43.21;101618.09;2405490;28;45430;-83
2022/08/29 08:38:52;;;;;;;;;3.00;3.00;;;;;22.41;43.18;101627.63;2406785;28;45410;-83
2022/08/29 08:40:02;;;;;;;;;4.00;3.25;;;;;22.42;42.81;101620.44;2412919;28;45555;-84
2022/08/29 08:41:51;;;;;;;;;2.00;1.75;;;;;22.48;43.02;101622.66;2413109;28;45241;-83
2022/08/29 08:43:02;;;;;;;;;3.00;2.00;;;;;22.49;42.33;101625.22;2410282;28;46438;-84
2022/08/29 08:44:33;;;;;;;;;4.00;4.00;;;;;22.52;42.84;101634.88;2412253;28;45278;-84
2022/08/29 08:45:44;;;;;;;;;3.00;2.00;;;;;22.54;42.33;101626.75;2411974;28;47831;-84
2022/08/29 08:47:00;;;;;;;;;3.75;2.25;;;;;22.57;42.42;101621.19;2411364;28;45451;-84
2022/08/29 08:48:19;;;;;;;;;4.50;2.50;;;;;22.60;42.88;101631.66;2412875;28;45711;-84
2022/08/29 08:49:41;;;;;;;;;3.75;2.00;;;;;22.63;42.28;101630.59;2412314;28;45364;-84
2022/08/29 08:51:05;;;;;;;;;2.75;2.25;;;;;22.64;42.46;101622.47;2406850;28;48113;-83
2022/08/29 08:52:22;;;;;;;;;3.50;3.50;;;;;22.68;42.75;101621.28;2412589;28;45234;-83
2022/08/29 08:53:41;;;;;;;;;7.50;2.25;;;;;22.70;42.19;101622.03;2411965;28;48237;-84
2022/08/29 08:54:58;;;;;;;;;3.50;3.25;;;;;22.73;42.51;101614.75;2412633;28;44663;-84
2022/08/29 08:56:17;;;;;;;;;5.50;2.50;;;;;22.76;42.18;101615.41;2412857;28;45574;-84
2022/08/29 08:57:38;;;;;;;;;1.00;1.00;;;;;22.79;42.34;101612.47;2410547;28;45431;-84
2022/08/29 08:59:04;;;;;;;;;3.00;3.00;;;;;22.86;42.25;101620.09;2408942;28;45425;-83
2022/08/29 09:00:14;;;;;;;;;2.75;1.50;;;;;22.89;42.57;101623.41;2404235;28;45902;-83
2022/08/29 09:01:31;;;;;;;;;3.50;3.00;;;;;22.95;42.37;101629.28;2411984;28;48344;-84
2022/08/29 09:03:02;;;;;;;;;3.00;3.00;;;;;22.99;42.34;101614.72;2406076;28;45466;-82
2022/08/29 09:04:32;;;;;;;;;4.00;3.00;;;;;23.06;42.42;101636.56;2408004;28;48175;-84
2022/08/29 09:06:05;;;;;;;;;3.50;2.00;;;;;23.06;42.01;101626.69;2409962;28;45557;-84
2022/08/29 09:07:35;;;;;;;;;3.00;3.00;;;;;23.09;41.87;101630.97;2403472;28;47845;-82
2022/08/29 09:08:50;;;;;;;;;2.75;2.75;;;;;23.09;42.05;101626.44;2402836;28;45423;-83
2022/08/29 09:10:29;;;;;;;;;3.25;3.00;;;;;23.14;42.19;101636.84;2402383;28;47245;-83
2022/08/29 09:11:47;;;;;;;;;3.00;2.00;;;;;23.18;42.00;101624.94;2405540;28;44694;-83
2022/08/29 09:13:10;;;;;;;;;4.00;2.75;;;;;23.22;41.36;101630.94;2412009;28;45913;-83
2022/08/29 09:14:35;;;;;;;;;3.00;3.00;;;;;23.23;41.85;101622.78;2421998;28;45284;-82
2022/08/29 09:15:48;;;;;;;;;2.00;2.00;;;;;23.25;41.70;101622.66;2414461;28;46401;-83
2022/08/29 09:17:01;;;;;;;;;3.50;3.25;;;;;23.29;41.55;101616.09;2416003;28;44750;-82
2022/08/29 09:18:34;;;;;;;;;4.00;3.00;;;;;23.32;41.56;101615.00;2411795;28;47002;-85
2022/08/29 09:19:47;;;;;;;;;5.00;3.00;;;;;23.36;42.06;101621.88;2400139;28;45482;-82
2022/08/29 09:20:58;;;;;;;;;7.00;3.25;;;;;23.37;41.70;101621.75;2406301;28;48018;-82
2022/08/29 09:22:25;;;;;;;;;4.00;3.25;;;;;23.42;41.76;101618.72;2405566;28;45330;-84
2022/08/29 09:23:48;;;;;;;;;2.50;2.50;;;;;23.44;41.85;101615.91;2402433;28;47038;-83
2022/08/29 09:25:06;;;;;;;;;4.50;4.00;;;;;23.48;42.01;101625.47;2414809;28;44752;-83
2022/08/29 09:26:20;;;;;;;;;3.75;3.00;;;;;23.52;42.11;101615.38;2416538;28;46529;-83
2022/08/29 09:27:33;;;;;;;;;3.00;2.00;;;;;23.55;41.76;101613.34;2412401;28;45343;-83
2022/08/29 09:28:44;;;;;;;;;3.75;3.00;;;;;23.58;41.47;101615.78;2412713;28;45858;-83
2022/08/29 09:30:23;;;;;;;;;3.00;3.00;;;;;23.62;41.92;101620.91;2419324;28;45246;-83
2022/08/29 09:31:34;;;;;;;;;5.50;4.50;;;;;23.64;41.10;101621.66;2415404;28;45340;-83
2022/08/29 09:33:07;;;;;;;;;5.25;3.75;;;;;23.63;41.42;101622.66;2415320;28;45275;-83
2022/08/29 09:34:34;;;;;;;;;1.75;1.00;;;;;23.63;41.60;101617.28;2411551;28;47656;-83
2022/08/29 09:35:47;;;;;;;;;5.75;4.75;;;;;23.66;42.02;101625.06;2416979;28;45224;-82
2022/08/29 09:36:58;;;;;;;;;5.00;3.75;;;;;23.67;41.44;101614.25;2421040;28;45812;-83
2022/08/29 09:38:17;;;;;;;;;4.50;3.00;;;;;23.71;41.54;101610.34;2422113;28;45319;-83
2022/08/29 09:39:30;;;;;;;;;5.00;4.00;;;;;23.75;41.23;101608.31;2413353;28;45596;-82
2022/08/29 09:40:42;;;;;;;;;6.50;4.25;;;;;23.77;41.46;101614.41;2412463;28;45264;-82
2022/08/29 09:41:59;;;;;;;;;5.00;4.00;;;;;23.79;41.49;101611.59;2412202;28;45272;-82
2022/08/29 09:43:17;;;;;;;;;4.75;3.50;;;;;23.83;41.33;101607.69;2412707;28;44699;-83
2022/08/29 09:44:31;;;;;;;;;7.00;4.50;;;;;23.86;41.53;101612.84;2402135;28;48359;-82
2022/08/29 09:46:01;;;;;;;;;5.25;2.75;;;;;23.89;41.47;101612.59;2405675;28;45510;-82
2022/08/29 09:47:19;;;;;;;;;4.00;4.00;;;;;23.94;41.57;101609.56;2417227;28;47161;-83
2022/08/29 09:48:30;;;;;;;;;5.00;3.75;;;;;23.97;41.61;101609.34;2422053;28;44671;-83
2022/08/29 09:50:00;;;;;;;;;7.25;4.25;;;;;24.00;41.09;101606.38;2420242;28;45454;-83
2022/08/29 09:51:14;;;;;;;;;3.00;3.00;;;;;24.04;41.53;101607.88;2411475;28;45555;-82
2022/08/29 09:52:24;;;;;;;;;4.25;2.25;;;;;24.08;41.66;101607.63;2412279;28;45318;-83
2022/08/29 09:53:35;;;;;;;;;6.00;4.25;;;;;24.12;41.11;101611.81;2412548;28;45394;-83
2022/08/29 09:54:46;;;;;;;;;5.75;2.00;;;;;24.14;40.96;101601.78;2412865;28;46178;-82
2022/08/29 09:56:04;;;;;;;;;3.25;3.25;;;;;24.14;41.54;101605.34;2410923;28;45284;-83
2022/08/29 09:57:17;;;;;;;;;4.75;3.00;;;;;24.18;41.36;101608.63;2415360;28;46914;-82
2022/08/29 09:58:32;;;;;;;;;3.75;3.75;;;;;24.19;41.19;101604.97;2422080;28;45315;-82
2022/08/29 09:59:46;;;;;;;;;5.50;3.50;;;;;24.24;41.37;101605.47;2412731;28;46324;-82
2022/08/29 10:00:59;;;;;;;;;3.25;3.25;;;;;24.27;41.25;101601.72;2421043;28;45486;-82
2022/08/29 10:02:15;;;;;;;;;5.00;5.00;;;;;24.30;40.99;101604.16;2408589;28;47183;-82
2022/08/29 10:03:31;;;;;;;;;5.25;4.00;;;;;24.32;40.84;101604.06;2415188;28;45253;-83
2022/08/29 10:04:44;;;;;;;;;5.00;5.00;;;;;24.35;41.00;101606.47;2418188;28;45329;-82
2022/08/29 10:06:13;;;;;;;;;4.50;4.50;;;;;24.39;40.90;101606.16;2422038;28;44659;-82
2022/08/29 10:07:31;;;;;;;;;7.25;5.75;;;;;24.42;40.96;101602.31;2421846;28;46617;-82
2022/08/29 10:09:07;;;;;;;;;4.00;4.00;;;;;24.43;41.09;101598.69;2411029;28;45261;-83
2022/08/29 10:10:24;;;;;;;;;5.25;4.75;;;;;24.47;40.98;101597.44;2415428;28;45467;-83
2022/08/29 10:11:38;;;;;;;;;7.00;5.50;;;;;24.52;40.57;101601.63;2412441;28;45238;-82
2022/08/29 10:12:53;;;;;;;;;5.50;4.00;;;;;24.55;40.58;101601.34;2411748;28;45478;-83
2022/08/29 10:14:10;;;;;;;;;6.25;4.25;;;;;24.58;40.90;101603.81;2412358;28;45380;-82
2022/08/29 10:15:43;;;;;;;;;5.00;5.00;;;;;24.60;40.68;101601.84;2402013;28;47017;-83
2022/08/29 10:18:49;;;;;;;;;6.00;4.00;;;;;24.66;40.75;101598.69;2412100;28;45242;-83
2022/08/29 10:20:00;;;;;;;;;6.50;6.00;;;;;24.70;41.09;101599.28;2417956;28;44827;-82
2022/08/29 10:21:48;;;;;;;;;7.00;7.00;;;;;24.75;40.56;101596.22;2420056;28;46665;-83
2022/08/29 10:23:05;;;;;;;;;7.00;5.50;;;;;24.78;40.55;101595.97;2421988;28;45278;-83
2022/08/29 10:24:26;;;;;;;;;8.00;5.75;;;;;24.80;40.71;101592.19;2404385;28;48421;-82
2022/08/29 10:25:40;;;;;;;;;5.00;5.00;;;;;24.84;41.02;101598.19;2396827;28;44625;-82
2022/08/29 10:27:02;;;;;;;;;3.75;3.75;;;;;24.87;40.50;101594.38;2406546;28;47364;-83
2022/08/29 10:28:36;;;;;;;;;5.00;4.75;;;;;24.91;40.44;101591.34;2411537;28;45282;-83
2022/08/29 10:30:10;;;;;;;;;7.00;5.00;;;;;24.95;40.65;101594.59;2407390;28;46284;-83
2022/08/29 10:31:37;;;;;;;;;5.00;4.00;;;;;24.98;40.44;101582.75;2407870;28;45360;-83
2022/08/29 10:32:56;;;;;;;;;5.25;3.50;;;;;25.00;40.39;101587.06;2415933;28;46674;-83
2022/08/29 10:34:26;;;;;;;;;7.25;5.00;;;;;25.03;40.51;101585.94;2414146;28;45257;-83
2022/08/29 10:35:39;;;;;;;;;5.00;4.00;;;;;25.06;40.00;101594.59;2413039;28;47209;-82
2022/08/29 10:37:00;;;;;;;;;3.25;3.25;;;;;25.08;40.43;101591.81;2420052;28;45379;-83
2022/08/29 10:38:38;;;;;;;;;5.00;5.00;;;;;25.12;40.45;101587.00;2418991;28;46437;-82
2022/08/29 10:40:12;;;;;;;;;4.50;4.50;;;;;25.14;40.25;101582.34;2408280;28;45293;-83
2022/08/29 10:41:37;;;;;;;;;4.25;4.25;;;;;25.18;40.10;101591.91;2419318;28;45713;-82
2022/08/29 10:42:51;;;;;;;;;4.25;4.25;;;;;25.20;40.31;101581.00;2418029;28;45341;-82
2022/08/29 10:44:01;;;;;;;;;6.00;5.00;;;;;25.22;39.95;101584.41;2418606;28;46514;-82
2022/08/29 10:45:36;;;;;;;;;6.00;6.00;;;;;25.25;40.11;101592.25;2413927;28;45222;-82
2022/08/29 10:47:02;;;;;;;;;5.50;4.75;;;;;25.25;40.07;101586.88;2422143;28;45739;-82
2022/08/29 10:48:24;;;;;;;;;7.00;7.00;;;;;25.27;40.12;101592.97;2423471;28;45309;-82
2022/08/29 10:50:01;;;;;;;;;3.75;3.00;;;;;25.30;39.60;101587.34;2412518;28;47297;-82
2022/08/29 10:51:18;;;;;;;;;4.25;4.25;;;;;25.32;39.50;101581.81;2409855;28;45211;-83
2022/08/29 10:52:51;;;;;;;;;4.75;4.75;;;;;25.33;39.98;101579.03;2406992;28;47596;-82
2022/08/29 10:54:36;;;;;;;;;4.50;4.00;;;;;25.36;40.00;101570.66;2416446;28;44752;-82
2022/08/29 10:55:48;;;;;;;;;5.25;3.75;;;;;25.39;39.50;101567.72;2410377;28;45556;-82
2022/08/29 10:57:02;;;;;;;;;6.00;4.50;;;;;25.42;39.81;101571.13;2422736;28;45328;-82
2022/08/29 10:58:50;;;;;;;;;5.25;5.25;;;;;25.46;39.70;101573.44;2423093;28;45848;-82
2022/08/29 11:00:06;;;;;;;;;6.50;6.50;;;;;25.49;39.93;101575.03;2413067;28;45306;-83
2022/08/29 11:01:32;;;;;;;;;5.00;4.50;;;;;25.53;39.60;101573.81;2416521;28;46687;-82